createdAt,value
2018-09-27T00:00:17.641Z,0.00
2018-09-27T00:01:18.010Z,0.00
2018-09-27T00:02:17.666Z,0.00
2018-09-27T00:04:18.020Z,0.00
2018-09-27T00:05:17.543Z,0.00
2018-09-27T00:06:17.486Z,0.00
2018-09-27T00:07:18.256Z,0.00
2018-09-27T00:08:17.535Z,0.00
2018-09-27T00:09:17.438Z,0.00
2018-09-27T00:10:17.428Z,0.00
2018-09-27T00:11:17.519Z,0.00
2018-09-27T00:12:17.450Z,0.00
2018-09-27T00:13:17.899Z,0.00
2018-09-27T00:17:17.460Z,0.00
2018-09-27T00:18:17.358Z,0.00
2018-09-27T00:19:17.825Z,0.00
2018-09-27T00:20:17.469Z,0.00
2018-09-27T00:21:17.339Z,0.00
2018-09-27T00:22:17.322Z,0.00
2018-09-27T00:23:17.237Z,0.00
2018-09-27T00:24:17.305Z,0.00
2018-09-27T00:25:17.572Z,0.00
2018-09-27T00:26:17.330Z,0.00
2018-09-27T00:27:17.157Z,0.00
2018-09-27T00:28:17.278Z,0.00
2018-09-27T00:29:17.434Z,0.00
2018-09-27T00:30:17.122Z,0.00
2018-09-27T00:31:19.856Z,0.00
2018-09-27T00:32:17.530Z,0.00
2018-09-27T00:34:17.051Z,0.00
2018-09-27T00:37:17.392Z,0.00
2018-09-27T00:38:17.114Z,0.00
2018-09-27T00:39:16.977Z,0.00
2018-09-27T00:40:16.959Z,0.00
2018-09-27T00:41:16.953Z,0.00
2018-09-27T00:42:17.037Z,0.00
2018-09-27T00:43:17.293Z,0.00
2018-09-27T00:45:17.219Z,0.00
2018-09-27T00:46:17.115Z,0.00
2018-09-27T00:47:16.900Z,0.00
2018-09-27T00:48:16.837Z,0.00
2018-09-27T00:49:16.940Z,0.00
2018-09-27T00:50:16.920Z,0.00
2018-09-27T00:51:16.832Z,0.00
2018-09-27T00:52:17.082Z,0.00
2018-09-27T00:53:16.831Z,0.00
2018-09-27T00:54:16.753Z,0.00
2018-09-27T00:55:16.983Z,0.00
2018-09-27T00:56:17.235Z,0.00
2018-09-27T00:57:16.691Z,0.00
2018-09-27T00:58:16.692Z,0.00
2018-09-27T00:59:17.064Z,0.00
2018-09-27T01:00:16.657Z,0.00
2018-09-27T01:02:16.818Z,0.00
2018-09-27T01:03:16.635Z,0.00
2018-09-27T01:05:16.880Z,0.00
2018-09-27T01:06:16.758Z,0.00
2018-09-27T01:07:16.594Z,0.00
2018-09-27T01:08:16.771Z,0.00
2018-09-27T01:09:16.531Z,0.00
2018-09-27T01:10:16.519Z,0.00
2018-09-27T01:11:16.538Z,0.00
2018-09-27T01:13:16.864Z,0.00
2018-09-27T01:14:16.491Z,0.00
2018-09-27T01:15:16.935Z,0.00
2018-09-27T01:16:16.415Z,0.00
2018-09-27T01:17:16.398Z,0.00
2018-09-27T01:18:16.473Z,0.00
2018-09-27T01:19:16.525Z,0.00
2018-09-27T01:20:16.975Z,0.00
2018-09-27T01:21:16.427Z,0.00
2018-09-27T01:24:16.395Z,0.00
2018-09-27T01:25:16.366Z,0.00
2018-09-27T01:27:16.539Z,0.00
2018-09-27T01:28:16.342Z,0.00
2018-09-27T01:29:16.270Z,0.00
2018-09-27T01:30:16.342Z,0.00
2018-09-27T01:31:16.307Z,0.00
2018-09-27T01:32:16.173Z,0.00
2018-09-27T01:33:16.260Z,0.00
2018-09-27T01:34:16.136Z,0.00
2018-09-27T01:35:16.125Z,0.00
2018-09-27T01:36:16.121Z,0.00
2018-09-27T01:37:16.091Z,0.00
2018-09-27T01:38:16.128Z,0.00
2018-09-27T01:39:16.257Z,0.00
2018-09-27T01:40:16.061Z,0.00
2018-09-27T01:41:16.113Z,0.00
2018-09-27T01:42:16.231Z,0.00
2018-09-27T01:43:16.025Z,0.00
2018-09-27T01:44:15.984Z,0.00
2018-09-27T01:45:16.021Z,0.00
2018-09-27T01:46:16.008Z,0.00
2018-09-27T01:47:21.409Z,0.00
2018-09-27T01:48:15.920Z,0.00
2018-09-27T01:49:15.978Z,0.00
2018-09-27T01:50:15.899Z,0.00
2018-09-27T01:51:15.939Z,0.00
2018-09-27T01:52:15.866Z,0.00
2018-09-27T01:53:15.840Z,0.00
2018-09-27T01:55:15.910Z,0.00
2018-09-27T01:56:15.941Z,0.00
2018-09-27T01:57:16.090Z,0.00
2018-09-27T01:58:15.761Z,0.00
2018-09-27T01:59:15.750Z,0.00
2018-09-27T02:00:15.940Z,0.00
2018-09-27T02:02:16.060Z,0.00
2018-09-27T02:03:15.892Z,0.00
2018-09-27T02:04:15.682Z,0.00
2018-09-27T02:05:15.749Z,0.00
2018-09-27T02:07:15.719Z,0.00
2018-09-27T02:08:15.803Z,0.00
2018-09-27T02:09:15.672Z,0.00
2018-09-27T02:10:15.593Z,0.00
2018-09-27T02:11:15.649Z,0.00
2018-09-27T02:12:15.572Z,0.00
2018-09-27T02:13:15.532Z,0.00
2018-09-27T02:14:15.530Z,0.00
2018-09-27T02:15:15.567Z,0.00
2018-09-27T02:16:15.510Z,0.00
2018-09-27T02:17:15.519Z,0.00
2018-09-27T02:18:15.455Z,0.00
2018-09-27T02:19:15.437Z,0.00
2018-09-27T02:20:15.485Z,0.00
2018-09-27T02:21:15.515Z,0.00
2018-09-27T02:22:15.403Z,0.00
2018-09-27T02:23:15.388Z,0.00
2018-09-27T02:24:15.416Z,0.00
2018-09-27T02:25:15.351Z,0.00
2018-09-27T02:26:16.731Z,0.00
2018-09-27T02:27:15.476Z,0.00
2018-09-27T02:28:15.426Z,0.00
2018-09-27T02:29:15.313Z,0.00
2018-09-27T02:31:17.165Z,0.00
2018-09-27T02:32:15.263Z,0.00
2018-09-27T02:33:15.701Z,0.00
2018-09-27T02:34:15.674Z,0.00
2018-09-27T02:36:15.293Z,0.00
2018-09-27T02:37:15.178Z,0.00
2018-09-27T02:38:15.306Z,0.00
2018-09-27T02:39:15.594Z,0.00
2018-09-27T02:41:15.131Z,0.00
2018-09-27T02:42:15.176Z,0.00
2018-09-27T02:43:15.180Z,0.00
2018-09-27T02:44:15.147Z,0.00
2018-09-27T02:45:15.094Z,0.00
2018-09-27T02:46:15.272Z,0.00
2018-09-27T02:47:15.052Z,0.00
2018-09-27T02:48:15.415Z,0.00
2018-09-27T02:49:14.996Z,0.00
2018-09-27T02:50:15.181Z,0.00
2018-09-27T02:51:15.006Z,0.00
2018-09-27T02:52:15.016Z,0.00
2018-09-27T02:53:15.032Z,0.00
2018-09-27T02:54:14.930Z,0.00
2018-09-27T02:55:15.436Z,0.00
2018-09-27T02:56:15.215Z,0.00
2018-09-27T02:57:15.013Z,0.00
2018-09-27T02:58:14.843Z,0.00
2018-09-27T02:59:14.850Z,0.00
2018-09-27T03:00:14.902Z,0.00
2018-09-27T03:01:15.395Z,0.00
2018-09-27T03:02:15.081Z,0.00
2018-09-27T03:04:14.821Z,0.00
2018-09-27T03:05:14.739Z,0.00
2018-09-27T03:06:14.721Z,0.00
2018-09-27T03:07:14.873Z,0.00
2018-09-27T03:08:15.042Z,0.00
2018-09-27T03:09:14.832Z,0.00
2018-09-27T03:10:14.718Z,0.00
2018-09-27T03:11:14.672Z,0.00
2018-09-27T03:12:14.755Z,0.00
2018-09-27T03:13:14.625Z,0.00
2018-09-27T03:15:14.929Z,0.00
2018-09-27T03:16:14.752Z,0.00
2018-09-27T03:17:14.558Z,0.00
2018-09-27T03:18:14.574Z,0.00
2018-09-27T03:22:14.804Z,0.00
2018-09-27T03:23:14.874Z,0.00
2018-09-27T03:24:14.502Z,0.00
2018-09-27T03:25:14.441Z,0.00
2018-09-27T03:26:14.502Z,0.00
2018-09-27T03:27:14.394Z,0.00
2018-09-27T03:28:14.730Z,0.00
2018-09-27T03:29:14.365Z,0.00
2018-09-27T03:30:14.481Z,0.00
2018-09-27T03:31:14.342Z,0.00
2018-09-27T03:32:14.331Z,0.00
2018-09-27T03:33:14.373Z,0.00
2018-09-27T03:34:14.673Z,0.00
2018-09-27T03:35:14.343Z,0.00
2018-09-27T03:36:14.343Z,0.00
2018-09-27T03:37:14.331Z,0.00
2018-09-27T03:38:14.260Z,0.00
2018-09-27T03:39:14.311Z,0.00
2018-09-27T03:41:14.560Z,0.00
2018-09-27T03:42:14.225Z,0.00
2018-09-27T03:43:14.294Z,0.00
2018-09-27T03:44:14.191Z,0.00
2018-09-27T03:45:14.156Z,0.00
2018-09-27T03:46:14.098Z,0.00
2018-09-27T03:47:14.376Z,0.00
2018-09-27T03:48:14.366Z,0.00
2018-09-27T03:49:14.051Z,0.00
2018-09-27T03:50:14.041Z,0.00
2018-09-27T03:51:14.229Z,0.00
2018-09-27T03:52:14.003Z,0.00
2018-09-27T03:53:14.059Z,0.00
2018-09-27T03:54:13.996Z,0.00
2018-09-27T03:55:14.273Z,0.00
2018-09-27T03:56:14.085Z,0.00
2018-09-27T03:58:14.008Z,0.00
2018-09-27T03:59:13.952Z,0.00
2018-09-27T04:00:13.898Z,0.00
2018-09-27T04:01:13.919Z,0.00
2018-09-27T04:02:14.225Z,0.00
2018-09-27T04:03:14.044Z,0.00
2018-09-27T04:04:13.874Z,0.00
2018-09-27T04:06:14.005Z,0.00
2018-09-27T04:07:13.862Z,0.00
2018-09-27T04:08:13.851Z,0.00
2018-09-27T04:09:14.052Z,0.00
2018-09-27T04:10:13.752Z,0.00
2018-09-27T04:11:13.736Z,0.00
2018-09-27T04:12:13.752Z,0.00
2018-09-27T04:13:13.692Z,0.00
2018-09-27T04:14:13.732Z,0.00
2018-09-27T04:15:13.663Z,0.00
2018-09-27T04:16:13.939Z,0.00
2018-09-27T04:17:13.718Z,0.00
2018-09-27T04:18:14.003Z,0.00
2018-09-27T04:19:13.645Z,0.00
2018-09-27T04:20:13.593Z,0.00
2018-09-27T04:21:13.666Z,0.00
2018-09-27T04:22:13.559Z,0.00
2018-09-27T04:24:13.640Z,0.00
2018-09-27T04:25:13.564Z,0.00
2018-09-27T04:26:13.583Z,0.00
2018-09-27T04:27:13.659Z,0.00
2018-09-27T04:28:13.557Z,0.00
2018-09-27T04:29:13.857Z,0.00
2018-09-27T04:30:13.488Z,0.00
2018-09-27T04:31:13.495Z,0.00
2018-09-27T04:32:13.438Z,0.00
2018-09-27T04:33:13.468Z,0.00
2018-09-27T04:34:13.386Z,0.00
2018-09-27T04:37:13.680Z,0.00
2018-09-27T04:38:13.322Z,0.00
2018-09-27T04:39:13.332Z,0.00
2018-09-27T04:40:13.295Z,0.00
2018-09-27T04:41:13.321Z,0.00
2018-09-27T04:42:13.298Z,0.00
2018-09-27T04:44:14.088Z,0.00
2018-09-27T04:46:13.260Z,0.00
2018-09-27T04:47:13.242Z,0.00
2018-09-27T04:48:13.335Z,0.00
2018-09-27T04:49:13.693Z,0.00
2018-09-27T04:50:14.591Z,0.00
2018-09-27T04:52:13.219Z,0.00
2018-09-27T04:53:13.064Z,0.00
2018-09-27T04:54:13.166Z,0.00
2018-09-27T04:55:13.592Z,0.00
2018-09-27T04:56:14.807Z,0.00
2018-09-27T04:59:13.360Z,0.00
2018-09-27T05:00:13.305Z,0.00
2018-09-27T05:02:12.953Z,0.00
2018-09-27T05:03:13.089Z,0.00
2018-09-27T05:04:12.894Z,0.00
2018-09-27T05:05:12.882Z,0.00
2018-09-27T05:06:12.898Z,0.00
2018-09-27T05:07:13.142Z,0.00
2018-09-27T05:08:12.837Z,0.00
2018-09-27T05:09:12.873Z,0.00
2018-09-27T05:10:12.835Z,0.00
2018-09-27T05:11:12.807Z,0.00
2018-09-27T05:12:12.762Z,0.00
2018-09-27T05:13:12.814Z,0.00
2018-09-27T05:14:13.141Z,0.00
2018-09-27T05:15:12.778Z,0.00
2018-09-27T05:16:12.719Z,0.00
2018-09-27T05:17:12.680Z,5.63
2018-09-27T05:18:12.704Z,5.63
2018-09-27T05:19:12.777Z,5.63
2018-09-27T05:20:12.909Z,5.63
2018-09-27T05:21:13.549Z,5.63
2018-09-27T05:22:13.406Z,5.63
2018-09-27T05:23:12.930Z,5.63
2018-09-27T05:25:12.615Z,11.25
2018-09-27T05:26:12.550Z,11.25
2018-09-27T05:27:12.582Z,11.25
2018-09-27T05:28:12.887Z,11.25
2018-09-27T05:29:12.496Z,11.25
2018-09-27T05:31:12.537Z,11.25
2018-09-27T05:32:12.462Z,16.88
2018-09-27T05:33:12.459Z,16.88
2018-09-27T05:34:12.443Z,16.88
2018-09-27T05:35:12.896Z,16.88
2018-09-27T05:36:12.490Z,16.88
2018-09-27T05:37:12.691Z,16.88
2018-09-27T05:39:12.569Z,16.88
2018-09-27T05:40:12.469Z,16.88
2018-09-27T05:41:17.593Z,16.88
2018-09-27T05:42:14.651Z,16.88
2018-09-27T05:43:13.127Z,22.50
2018-09-27T05:45:12.695Z,22.50
2018-09-27T05:46:12.376Z,22.50
2018-09-27T05:47:12.323Z,28.13
2018-09-27T05:48:12.393Z,28.13
2018-09-27T05:50:12.620Z,33.75
2018-09-27T05:51:12.240Z,33.75
2018-09-27T05:52:12.254Z,39.38
2018-09-27T05:53:12.132Z,39.38
2018-09-27T05:54:12.202Z,45.00
2018-09-27T05:55:12.463Z,45.00
2018-09-27T05:56:12.068Z,45.00
2018-09-27T05:57:12.092Z,45.00
2018-09-27T05:58:12.203Z,45.00
2018-09-27T05:59:12.031Z,45.00
2018-09-27T06:00:12.105Z,45.00
2018-09-27T06:01:12.769Z,50.63
2018-09-27T06:02:12.111Z,45.00
2018-09-27T06:03:12.551Z,39.38
2018-09-27T06:04:12.404Z,50.63
2018-09-27T06:05:11.966Z,45.00
2018-09-27T06:06:12.538Z,39.38
2018-09-27T06:07:12.259Z,39.38
2018-09-27T06:08:12.485Z,50.63
2018-09-27T06:09:11.881Z,50.63
2018-09-27T06:10:11.900Z,50.63
2018-09-27T06:11:12.339Z,45.00
2018-09-27T06:12:11.828Z,50.63
2018-09-27T06:13:12.161Z,45.00
2018-09-27T06:14:11.857Z,50.63
2018-09-27T06:15:12.075Z,50.63
2018-09-27T06:16:11.766Z,56.25
2018-09-27T06:18:11.750Z,50.63
2018-09-27T06:19:12.246Z,50.63
2018-09-27T06:20:11.901Z,50.63
2018-09-27T06:21:11.674Z,50.63
2018-09-27T06:22:11.656Z,56.25
2018-09-27T06:23:14.145Z,56.25
2018-09-27T06:24:11.641Z,56.25
2018-09-27T06:25:11.960Z,61.88
2018-09-27T06:26:12.192Z,61.88
2018-09-27T06:27:11.684Z,56.25
2018-09-27T06:28:11.619Z,61.88
2018-09-27T06:29:11.560Z,73.13
2018-09-27T06:30:11.532Z,84.38
2018-09-27T06:31:11.920Z,78.75
2018-09-27T06:32:11.502Z,61.88
2018-09-27T06:33:12.017Z,67.50
2018-09-27T06:34:13.818Z,67.50
2018-09-27T06:35:13.609Z,84.38
2018-09-27T06:36:14.782Z,78.75
2018-09-27T06:37:12.393Z,73.13
2018-09-27T06:39:11.958Z,61.88
2018-09-27T06:43:12.498Z,73.13
2018-09-27T06:44:11.412Z,73.13
2018-09-27T06:45:11.338Z,78.75
2018-09-27T06:48:11.635Z,73.13
2018-09-27T06:49:16.314Z,78.75
2018-09-27T06:50:11.313Z,90.00
2018-09-27T06:51:11.201Z,123.75
2018-09-27T06:52:11.195Z,129.38
2018-09-27T06:53:11.196Z,135.00
2018-09-27T06:54:11.611Z,151.88
2018-09-27T06:55:12.701Z,123.75
2018-09-27T06:56:11.182Z,129.38
2018-09-27T06:57:11.106Z,135.00
2018-09-27T06:59:11.892Z,112.50
2018-09-27T07:01:12.007Z,140.63
2018-09-27T07:02:11.283Z,129.38
2018-09-27T07:03:11.160Z,140.63
2018-09-27T07:04:10.992Z,151.88
2018-09-27T07:05:11.042Z,135.00
2018-09-27T07:07:11.460Z,140.63
2018-09-27T07:08:10.931Z,168.75
2018-09-27T07:10:10.909Z,140.63
2018-09-27T07:13:11.237Z,191.25
2018-09-27T07:14:10.935Z,163.13
2018-09-27T07:15:10.916Z,146.25
2018-09-27T07:16:10.811Z,168.75
2018-09-27T07:17:10.856Z,163.13
2018-09-27T07:18:10.784Z,174.38
2018-09-27T07:19:11.234Z,191.25
2018-09-27T07:20:10.851Z,163.13
2018-09-27T07:21:10.781Z,163.13
2018-09-27T07:24:10.720Z,135.00
2018-09-27T07:25:10.788Z,151.88
2018-09-27T07:26:10.958Z,112.50
2018-09-27T07:27:10.733Z,123.75
2018-09-27T07:30:10.610Z,101.25
2018-09-27T07:31:10.683Z,112.50
2018-09-27T07:33:10.919Z,112.50
2018-09-27T07:34:10.975Z,112.50
2018-09-27T07:35:10.544Z,112.50
2018-09-27T07:36:11.257Z,106.88
2018-09-27T07:37:10.543Z,112.50
2018-09-27T07:38:10.481Z,112.50
2018-09-27T07:39:10.762Z,101.25
2018-09-27T07:40:10.520Z,112.50
2018-09-27T07:41:10.432Z,112.50
2018-09-27T07:42:10.516Z,106.88
2018-09-27T07:44:10.435Z,112.50
2018-09-27T07:45:10.720Z,112.50
2018-09-27T07:46:10.362Z,112.50
2018-09-27T07:47:10.340Z,112.50
2018-09-27T07:48:10.330Z,112.50
2018-09-27T07:49:10.312Z,112.50
2018-09-27T07:50:10.373Z,118.13
2018-09-27T07:51:10.588Z,112.50
2018-09-27T07:52:10.269Z,123.75
2018-09-27T07:53:10.257Z,118.13
2018-09-27T07:54:10.353Z,118.13
2018-09-27T07:55:10.318Z,118.13
2018-09-27T07:56:10.299Z,123.75
2018-09-27T07:57:10.499Z,123.75
2018-09-27T07:58:10.186Z,123.75
2018-09-27T07:59:10.198Z,123.75
2018-09-27T08:00:10.184Z,129.38
2018-09-27T08:02:10.174Z,129.38
2018-09-27T08:03:10.531Z,129.38
2018-09-27T08:04:10.204Z,129.38
2018-09-27T08:05:10.145Z,140.63
2018-09-27T08:06:10.078Z,129.38
2018-09-27T08:07:10.062Z,129.38
2018-09-27T08:09:10.343Z,135.00
2018-09-27T08:10:10.057Z,140.63
2018-09-27T08:11:10.086Z,135.00
2018-09-27T08:14:10.004Z,135.00
2018-09-27T08:15:09.996Z,135.00
2018-09-27T08:16:10.255Z,140.63
2018-09-27T08:17:09.943Z,135.00
2018-09-27T08:18:09.901Z,135.00
2018-09-27T08:19:09.888Z,146.25
2018-09-27T08:21:10.146Z,146.25
2018-09-27T08:23:10.134Z,146.25
2018-09-27T08:24:09.871Z,146.25
2018-09-27T08:25:09.860Z,151.88
2018-09-27T08:26:09.789Z,146.25
2018-09-27T08:27:09.822Z,157.50
2018-09-27T08:28:09.774Z,146.25
2018-09-27T08:29:09.746Z,151.88
2018-09-27T08:30:10.041Z,168.75
2018-09-27T08:31:09.792Z,163.13
2018-09-27T08:32:10.299Z,151.88
2018-09-27T08:33:10.171Z,157.50
2018-09-27T08:34:09.768Z,174.38
2018-09-27T08:35:09.674Z,185.63
2018-09-27T08:36:09.672Z,219.38
2018-09-27T08:37:10.049Z,202.50
2018-09-27T08:39:10.076Z,225.00
2018-09-27T08:40:10.287Z,225.00
2018-09-27T08:41:09.972Z,219.38
2018-09-27T08:42:10.014Z,225.00
2018-09-27T08:43:10.349Z,219.38
2018-09-27T08:44:09.559Z,225.00
2018-09-27T08:45:09.703Z,236.25
2018-09-27T08:46:09.539Z,275.63
2018-09-27T08:48:09.505Z,343.13
2018-09-27T08:49:10.092Z,303.75
2018-09-27T08:50:09.482Z,393.75
2018-09-27T08:51:09.509Z,320.63
2018-09-27T08:52:09.469Z,343.13
2018-09-27T08:53:09.443Z,331.88
2018-09-27T08:54:09.744Z,410.63
2018-09-27T08:56:09.493Z,365.63
2018-09-27T08:58:09.576Z,433.13
2018-09-27T08:59:09.422Z,495.00
2018-09-27T09:00:09.354Z,472.50
2018-09-27T09:01:09.655Z,534.38
2018-09-27T09:02:09.443Z,573.75
2018-09-27T09:03:09.317Z,697.50
2018-09-27T09:04:09.355Z,1569.38
2018-09-27T09:05:09.440Z,331.88
2018-09-27T09:06:09.433Z,1170.00
2018-09-27T09:07:09.727Z,331.88
2018-09-27T09:08:09.555Z,658.13
2018-09-27T09:09:09.263Z,911.25
2018-09-27T09:10:09.295Z,298.13
2018-09-27T09:11:09.242Z,646.88
2018-09-27T09:12:09.277Z,1490.63
2018-09-27T09:13:09.558Z,376.88
2018-09-27T09:14:09.303Z,1063.13
2018-09-27T09:15:09.188Z,731.25
2018-09-27T09:16:09.463Z,838.13
2018-09-27T09:17:09.163Z,618.75
2018-09-27T09:18:09.149Z,2497.50
2018-09-27T09:19:09.452Z,2255.63
2018-09-27T09:20:09.128Z,928.13
2018-09-27T09:21:09.118Z,2300.63
2018-09-27T09:23:09.319Z,2199.38
2018-09-27T09:24:09.523Z,2053.13
2018-09-27T09:25:09.379Z,483.75
2018-09-27T09:26:09.169Z,1147.50
2018-09-27T09:27:09.786Z,472.50
2018-09-27T09:28:09.066Z,444.38
2018-09-27T09:29:09.373Z,579.38
2018-09-27T09:30:09.036Z,641.25
2018-09-27T09:31:09.358Z,601.88
2018-09-27T09:34:09.110Z,371.25
2018-09-27T09:35:09.012Z,500.63
2018-09-27T09:36:09.026Z,511.88
2018-09-27T09:37:09.378Z,511.88
2018-09-27T09:39:08.921Z,461.25
2018-09-27T09:40:08.940Z,511.88
2018-09-27T09:41:08.998Z,444.38
2018-09-27T09:42:08.898Z,1935.00
2018-09-27T09:43:09.232Z,410.63
2018-09-27T09:45:08.885Z,2323.13
2018-09-27T09:46:08.911Z,2328.75
2018-09-27T09:47:08.959Z,2396.25
2018-09-27T09:48:09.813Z,2295.00
2018-09-27T09:49:09.131Z,2514.38
2018-09-27T09:51:09.131Z,2120.63
2018-09-27T09:52:08.826Z,1839.38
2018-09-27T09:53:08.840Z,1546.88
2018-09-27T09:54:08.982Z,1580.63
2018-09-27T09:55:09.112Z,1530.00
2018-09-27T09:56:08.756Z,1710.00
2018-09-27T09:57:08.781Z,1873.13
2018-09-27T09:58:08.757Z,2126.25
2018-09-27T09:59:08.809Z,2137.50
2018-09-27T10:01:09.180Z,2289.38
2018-09-27T10:03:08.690Z,2283.75
2018-09-27T10:04:08.829Z,1895.63
2018-09-27T10:05:09.039Z,2565.00
2018-09-27T10:06:08.788Z,1929.38
2018-09-27T10:07:09.057Z,2823.75
2018-09-27T10:09:08.728Z,2373.75
2018-09-27T10:10:08.636Z,2103.75
2018-09-27T10:11:08.690Z,1614.38
2018-09-27T10:12:09.868Z,2711.25
2018-09-27T10:13:08.961Z,2801.25
2018-09-27T10:14:08.708Z,1108.13
2018-09-27T10:15:08.692Z,2773.13
2018-09-27T10:16:08.772Z,2778.75
2018-09-27T10:17:08.666Z,2677.50
2018-09-27T10:18:08.780Z,2480.63
2018-09-27T10:19:08.877Z,1895.63
2018-09-27T10:20:08.545Z,2587.50
2018-09-27T10:21:08.598Z,2739.38
2018-09-27T10:22:08.681Z,2829.38
2018-09-27T10:24:08.505Z,2542.50
2018-09-27T10:25:08.895Z,2283.75
2018-09-27T10:26:08.490Z,601.88
2018-09-27T10:27:08.529Z,2463.75
2018-09-27T10:28:08.558Z,1310.63
2018-09-27T10:29:08.604Z,1310.63
2018-09-27T10:30:08.472Z,950.63
2018-09-27T10:32:08.738Z,590.63
2018-09-27T10:35:08.468Z,2452.50
2018-09-27T10:37:08.458Z,2503.13
2018-09-27T10:38:08.701Z,416.25
2018-09-27T10:39:08.732Z,1243.13
2018-09-27T10:40:08.761Z,433.13
2018-09-27T10:41:09.907Z,478.13
2018-09-27T10:42:08.837Z,950.63
2018-09-27T10:43:09.276Z,697.50
2018-09-27T10:44:08.649Z,669.38
2018-09-27T10:45:08.372Z,517.50
2018-09-27T10:46:08.366Z,596.25
2018-09-27T10:47:08.370Z,545.63
2018-09-27T10:49:08.304Z,950.63
2018-09-27T10:50:08.617Z,433.13
2018-09-27T10:51:08.287Z,624.38
2018-09-27T10:52:08.293Z,686.25
2018-09-27T10:54:08.668Z,821.25
2018-09-27T10:55:08.256Z,765.00
2018-09-27T10:56:08.740Z,658.13
2018-09-27T10:58:08.223Z,1057.50
2018-09-27T10:59:08.627Z,1282.50
2018-09-27T11:00:08.264Z,2115.00
2018-09-27T11:01:08.253Z,1620.00
2018-09-27T11:02:08.496Z,2165.63
2018-09-27T11:04:08.333Z,2081.25
2018-09-27T11:05:08.162Z,2227.50
2018-09-27T11:06:08.294Z,2238.75
2018-09-27T11:07:08.177Z,2154.38
2018-09-27T11:08:08.445Z,2233.13
2018-09-27T11:09:08.149Z,2030.63
2018-09-27T11:10:08.181Z,2081.25
2018-09-27T11:11:08.203Z,2058.75
2018-09-27T11:12:08.162Z,2013.75
2018-09-27T11:13:08.153Z,1591.88
2018-09-27T11:14:08.598Z,1186.88
2018-09-27T11:15:08.121Z,731.25
2018-09-27T11:16:08.102Z,669.38
2018-09-27T11:17:08.127Z,646.88
2018-09-27T11:18:08.579Z,618.75
2018-09-27T11:19:08.272Z,573.75
2018-09-27T11:20:09.031Z,579.38
2018-09-27T11:21:08.067Z,534.38
2018-09-27T11:22:08.074Z,556.88
2018-09-27T11:23:08.058Z,540.00
2018-09-27T11:24:08.102Z,551.25
2018-09-27T11:26:08.359Z,534.38
2018-09-27T11:27:08.250Z,523.13
2018-09-27T11:28:14.980Z,523.13
2018-09-27T11:29:08.170Z,517.50
2018-09-27T11:30:09.510Z,500.63
2018-09-27T11:31:08.569Z,506.25
2018-09-27T11:32:09.111Z,495.00
2018-09-27T11:33:08.375Z,517.50
2018-09-27T11:34:08.691Z,410.63
2018-09-27T11:35:08.026Z,511.88
2018-09-27T11:36:08.170Z,511.88
2018-09-27T11:37:08.112Z,523.13
2018-09-27T11:38:08.353Z,500.63
2018-09-27T11:39:08.065Z,511.88
2018-09-27T11:40:08.178Z,495.00
2018-09-27T11:42:08.237Z,472.50
2018-09-27T11:43:07.932Z,489.38
2018-09-27T11:44:08.393Z,489.38
2018-09-27T11:45:07.944Z,523.13
2018-09-27T11:46:07.948Z,489.38
2018-09-27T11:47:07.975Z,483.75
2018-09-27T11:48:08.061Z,483.75
2018-09-27T11:49:08.639Z,466.88
2018-09-27T11:50:08.334Z,478.13
2018-09-27T11:51:07.929Z,478.13
2018-09-27T11:52:07.894Z,489.38
2018-09-27T11:53:07.880Z,478.13
2018-09-27T11:54:07.993Z,489.38
2018-09-27T11:55:07.910Z,495.00
2018-09-27T11:58:07.852Z,450.00
2018-09-27T11:59:07.906Z,478.13
2018-09-27T12:00:07.892Z,483.75
2018-09-27T12:01:07.871Z,466.88
2018-09-27T12:03:07.851Z,489.38
2018-09-27T12:04:07.825Z,495.00
2018-09-27T12:05:07.824Z,478.13
2018-09-27T12:06:07.866Z,461.25
2018-09-27T12:07:07.872Z,483.75
2018-09-27T12:08:08.112Z,495.00
2018-09-27T12:09:07.809Z,466.88
2018-09-27T12:10:07.798Z,472.50
2018-09-27T12:11:07.794Z,472.50
2018-09-27T12:12:07.954Z,472.50
2018-09-27T12:13:07.775Z,478.13
2018-09-27T12:14:08.134Z,461.25
2018-09-27T12:15:07.835Z,478.13
2018-09-27T12:16:07.785Z,478.13
2018-09-27T12:17:07.768Z,466.88
2018-09-27T12:18:07.915Z,478.13
2018-09-27T12:20:08.236Z,433.13
2018-09-27T12:21:08.119Z,483.75
2018-09-27T12:22:07.864Z,483.75
2018-09-27T12:25:07.725Z,472.50
2018-09-27T12:26:08.042Z,483.75
2018-09-27T12:27:07.710Z,388.13
2018-09-27T12:28:07.717Z,393.75
2018-09-27T12:29:07.703Z,483.75
2018-09-27T12:30:07.965Z,483.75
2018-09-27T12:31:07.991Z,483.75
2018-09-27T12:32:07.850Z,489.38
2018-09-27T12:33:07.751Z,489.38
2018-09-27T12:34:07.762Z,466.88
2018-09-27T12:35:07.754Z,466.88
2018-09-27T12:36:07.743Z,466.88
2018-09-27T12:37:08.006Z,433.13
2018-09-27T12:38:07.752Z,466.88
2018-09-27T12:39:07.693Z,478.13
2018-09-27T12:40:07.700Z,444.38
2018-09-27T12:41:07.797Z,410.63
2018-09-27T12:42:07.963Z,444.38
2018-09-27T12:43:08.133Z,450.00
2018-09-27T12:44:07.623Z,466.88
2018-09-27T12:45:07.704Z,450.00
2018-09-27T12:47:07.620Z,455.63
2018-09-27T12:49:07.901Z,455.63
2018-09-27T12:50:07.635Z,461.25
2018-09-27T12:51:07.711Z,416.25
2018-09-27T12:53:07.805Z,461.25
2018-09-27T12:54:07.704Z,472.50
2018-09-27T12:56:07.980Z,466.88
2018-09-27T12:57:07.644Z,427.50
2018-09-27T12:58:07.582Z,466.88
2018-09-27T12:59:07.568Z,461.25
2018-09-27T13:00:07.599Z,393.75
2018-09-27T13:01:07.860Z,461.25
2018-09-27T13:02:08.047Z,466.88
2018-09-27T13:03:07.855Z,466.88
2018-09-27T13:05:07.613Z,466.88
2018-09-27T13:06:07.572Z,472.50
2018-09-27T13:07:07.621Z,438.75
2018-09-27T13:08:07.859Z,455.63
2018-09-27T13:11:07.503Z,360.00
2018-09-27T13:13:07.605Z,450.00
2018-09-27T13:16:07.539Z,444.38
2018-09-27T13:17:07.830Z,466.88
2018-09-27T13:18:07.614Z,472.50
2018-09-27T13:19:07.512Z,461.25
2018-09-27T13:20:07.917Z,438.75
2018-09-27T13:21:07.497Z,450.00
2018-09-27T13:22:07.824Z,466.88
2018-09-27T13:23:07.808Z,461.25
2018-09-27T13:24:07.492Z,472.50
2018-09-27T13:25:07.428Z,472.50
2018-09-27T13:26:07.796Z,455.63
2018-09-27T13:28:07.454Z,450.00
2018-09-27T13:30:07.670Z,444.38
2018-09-27T13:31:07.569Z,371.25
2018-09-27T13:32:07.735Z,461.25
2018-09-27T13:33:07.459Z,461.25
2018-09-27T13:34:07.876Z,489.38
2018-09-27T13:35:11.699Z,466.88
2018-09-27T13:38:07.534Z,450.00
2018-09-27T13:39:07.393Z,478.13
2018-09-27T13:40:07.485Z,489.38
2018-09-27T13:41:07.344Z,489.38
2018-09-27T13:42:07.333Z,472.50
2018-09-27T13:43:07.395Z,444.38
2018-09-27T13:44:07.633Z,472.50
2018-09-27T13:45:07.403Z,360.00
2018-09-27T13:46:07.335Z,320.63
2018-09-27T13:48:14.041Z,337.50
2018-09-27T13:50:07.299Z,309.38
2018-09-27T13:52:10.813Z,444.38
2018-09-27T13:55:07.573Z,331.88
2018-09-27T13:56:08.253Z,444.38
2018-09-27T13:57:07.576Z,416.25
2018-09-27T13:58:07.242Z,444.38
2018-09-27T13:59:07.239Z,450.00
2018-09-27T14:00:07.699Z,365.63
2018-09-27T14:02:07.239Z,461.25
2018-09-27T14:03:07.375Z,450.00
2018-09-27T14:04:07.355Z,438.75
2018-09-27T14:05:07.207Z,455.63
2018-09-27T14:06:07.610Z,427.50
2018-09-27T14:07:07.195Z,416.25
2018-09-27T14:08:07.198Z,455.63
2018-09-27T14:09:07.175Z,433.13
2018-09-27T14:10:07.184Z,360.00
2018-09-27T14:11:08.369Z,466.88
2018-09-27T14:13:07.518Z,478.13
2018-09-27T14:14:07.143Z,455.63
2018-09-27T14:15:07.204Z,444.38
2018-09-27T14:16:07.183Z,427.50
2018-09-27T14:17:07.697Z,410.63
2018-09-27T14:19:07.466Z,275.63
2018-09-27T14:20:07.110Z,315.00
2018-09-27T14:21:12.611Z,326.25
2018-09-27T14:22:07.138Z,354.38
2018-09-27T14:23:07.145Z,354.38
2018-09-27T14:25:07.455Z,303.75
2018-09-27T14:26:07.121Z,365.63
2018-09-27T14:27:07.067Z,382.50
2018-09-27T14:28:07.068Z,354.38
2018-09-27T14:29:07.050Z,281.25
2018-09-27T14:30:07.146Z,331.88
2018-09-27T14:31:07.399Z,405.00
2018-09-27T14:32:07.058Z,331.88
2018-09-27T14:33:07.019Z,286.88
2018-09-27T14:34:07.111Z,241.88
2018-09-27T14:35:07.756Z,208.13
2018-09-27T14:36:07.091Z,286.88
2018-09-27T14:39:06.996Z,315.00
2018-09-27T14:40:06.979Z,225.00
2018-09-27T14:41:07.020Z,241.88
2018-09-27T14:42:06.977Z,264.38
2018-09-27T14:43:07.312Z,202.50
2018-09-27T14:45:06.973Z,196.88
2018-09-27T14:46:06.933Z,264.38
2018-09-27T14:47:06.923Z,230.63
2018-09-27T14:48:06.946Z,225.00
2018-09-27T14:49:07.370Z,219.38